Latest Weather Observations for Warra

IDT60801

Issued at 1:31 am EST Wednesday 8 July 2015 (issued every 30 minutes, with the page automatically refreshed every 10 minutes)

About weather observations | Map of weather stations | Latest weather observations for TAS | Other Formats
Station Details ID: 097024 Name: WARRA Lat: -43.06 Lon: 146.70 Height: 495.0 m
Data from the previous 72 hours. | See also: Recent months at Warra
Date/Time
EST
Temp
°C
App
Temp
°C
Dew
Point
Rel
Hum
%
Delta-T
°C
Wind Press
QNH
hPa
Press
MSL
hPa
Rain
since 9 am
mm
Dir
 
Spd
km/h
Gust
km/h
Spd
kts
Gust
kts
08/01:30am -2.0 -4.3 -2.1 99 -0.1 CALM 0 0 0 0 - - -
08/01:00am -1.4 -4.9 -1.5 99 0.0 NNW 7 11 4 6 - - -
08/12:30am -0.9 -4.2 -1.0 99 0.0 N 6 9 3 5 - - -
08/12:00am -2.3 -6.3 -2.4 99 -0.1 WNW 9 11 5 6 - - -
 
Date/Time
EST
Temp
°C
App
Temp
°C
Dew
Point
Rel
Hum
%
Delta-T
°C
Wind Press
QNH
hPa
Press
MSL
hPa
Rain
since 9 am
mm
Dir
 
Spd
km/h
Gust
km/h
Spd
kts
Gust
kts
07/11:30pm -2.3 -5.9 -2.4 99 -0.1 W 7 9 4 5 - - -
07/11:00pm -1.7 -5.1 -1.8 99 0.0 NNW 6 7 3 4 - - -
07/10:30pm -0.7 -4.1 -0.8 99 0.0 N 7 13 4 7 - - -
07/10:00pm -1.1 -5.0 -1.2 99 0.0 N 9 11 5 6 - - -
07/09:30pm -0.7 -4.2 -1.5 94 0.3 N 7 11 4 6 - - -
07/09:00pm 0.3 -3.1 -0.7 93 0.4 N 7 9 4 5 - - -
07/08:30pm 1.6 -2.1 0.0 89 0.6 NNE 9 13 5 7 - - -
07/08:00pm 1.7 -1.5 0.8 94 0.3 NE 7 13 4 7 - - -
07/07:30pm 2.0 -1.0 1.7 98 0.1 NNE 7 11 4 6 - - -
07/07:00pm 2.4 -0.6 2.3 99 0.0 NE 7 13 4 7 - - -
07/06:30pm 2.4 -0.3 2.4 100 0.0 NNE 6 9 3 5 - - -
07/06:00pm 2.5 -0.2 2.4 99 0.0 ENE 6 6 3 3 - - -
07/05:30pm 2.4 -0.4 2.3 99 0.0 ENE 6 11 3 6 - - 1.2
07/05:00pm 2.9 0.2 2.6 98 0.1 NE 6 7 3 4 - - 1.2
07/04:30pm 3.2 0.5 2.5 95 0.3 ENE 6 7 3 4 - - 1.2
07/04:00pm 3.6 0.9 2.4 92 0.5 ENE 6 9 3 5 - - 1.2
07/03:30pm 3.9 1.1 2.3 89 0.7 ENE 6 9 3 5 - - 1.2
07/03:00pm 4.4 1.5 2.4 87 0.8 E 7 11 4 6 - - 1.2
07/02:30pm 3.9 0.9 1.8 86 0.9 ENE 7 9 4 5 - - 1.2
07/02:00pm 3.9 1.0 1.3 83 1.0 E 6 9 3 5 - - 1.2
07/01:30pm 3.8 0.7 1.2 83 1.0 NE 7 9 4 5 - - 1.2
07/01:00pm 4.7 1.3 1.9 82 1.2 NE 9 13 5 7 - - 1.2
07/12:30pm 4.0 0.5 1.5 84 1.0 E 9 17 5 9 - - 1.2
07/12:00pm 4.0 0.6 1.9 86 0.9 E 9 13 5 7 - - 1.2
07/11:30am 3.7 0.8 2.5 92 0.5 ENE 7 13 4 7 - - 1.2
07/11:00am 3.7 1.0 3.6 99 0.0 ENE 7 11 4 6 - - 1.2
07/10:30am 2.7 0.0 2.7 100 0.0 ESE 6 9 3 5 - - 1.2
07/10:00am 2.5 0.2 2.5 100 0.0 S 4 7 2 4 - - 1.2
07/09:30am 1.6 -0.1 1.6 100 0.0 CALM 0 0 0 0 - - 0.0
07/09:00am 0.9 -2.1 0.9 100 0.0 W 6 7 3 4 - - 0.2
07/08:30am 0.4 -2.7 0.4 100 0.0 W 6 7 3 4 - - 0.2
07/08:00am 0.3 -2.8 0.3 100 0.0 SW 6 7 3 4 - - 0.2
07/07:30am 0.3 -2.4 0.3 100 0.0 WSW 4 7 2 4 - - 0.2
07/07:00am 0.3 -2.8 0.3 100 0.0 WSW 6 7 3 4 - - 0.2
07/06:30am 0.4 -2.7 0.4 100 0.0 SW 6 9 3 5 - - 0.2
07/06:00am 0.1 -3.0 0.1 100 0.0 SSW 6 11 3 6 - - 0.2
07/05:30am 0.3 -3.0 0.3 100 0.0 SW 7 9 4 5 - - 0.2
07/05:00am 0.3 -2.0 0.3 100 0.0 SW 2 7 1 4 - - 0.2
07/04:30am 0.2 -2.9 0.2 100 0.0 WSW 6 7 3 4 - - 0.2
07/04:00am -0.4 -3.8 -0.4 100 0.0 WSW 7 7 4 4 - - 0.2
07/03:30am -0.7 -4.1 -0.8 99 0.0 WSW 7 9 4 5 - - 0.2
07/03:00am -0.5 -3.9 -0.6 99 0.0 WSW 7 7 4 4 - - 0.2
07/02:30am 0.1 -3.0 0.0 99 0.0 SSW 6 7 3 4 - - 0.2
07/02:00am -0.4 -3.8 -0.7 98 0.1 W 7 11 4 6 - - 0.2
07/01:30am 0.3 -2.5 -0.4 95 0.3 SE 4 6 2 3 - - 0.2
07/01:00am 0.6 -2.4 0.5 99 0.0 S 6 9 3 5 - - 0.2
07/12:30am 0.2 -2.9 0.2 100 0.0 SW 6 9 3 5 - - 0.2
07/12:00am -0.1 -3.2 -0.1 100 0.0 SSW 6 9 3 5 - - 0.2
 
Date/Time
EST
Temp
°C
App
Temp
°C
Dew
Point
Rel
Hum
%
Delta-T
°C
Wind Press
QNH
hPa
Press
MSL
hPa
Rain
since 9 am
mm
Dir
 
Spd
km/h
Gust
km/h
Spd
kts
Gust
kts
06/11:30pm -0.5 -3.9 -0.5 100 0.0 SSW 7 9 4 5 - - 0.2
06/11:00pm -0.9 -4.2 -0.9 100 0.0 SW 6 9 3 5 - - 0.2
06/10:30pm -1.3 -4.6 -1.3 100 0.0 W 6 7 3 4 - - 0.2
06/10:00pm -0.5 -2.6 -0.5 100 0.0 CALM 0 0 0 0 - - 0.2
06/09:30pm -1.1 -4.4 -1.2 99 0.0 NW 6 7 3 4 - - 0.2
06/09:00pm -1.2 -4.5 -1.3 99 0.0 N 6 7 3 4 - - 0.2
06/08:30pm 0.1 -2.3 0.0 99 0.0 ESE 2 6 1 3 - - 0.2
06/08:00pm -0.5 -3.7 -0.8 98 0.1 SSW 6 9 3 5 - - 0.2
06/07:30pm 1.1 -1.9 0.5 96 0.2 SE 6 13 3 7 - - 0.2
06/07:00pm 0.8 -2.3 0.2 96 0.2 S 6 9 3 5 - - 0.2
06/06:30pm 0.7 -2.4 0.1 96 0.2 S 6 9 3 5 - - 0.2
06/06:00pm 0.6 -2.6 -0.5 92 0.4 S 6 11 3 6 - - 0.2
06/05:30pm 1.1 -2.3 -0.5 89 0.6 S 7 13 4 7 - - 0.2
06/05:00pm 1.1 -2.2 -1.0 86 0.8 S 6 9 3 5 - - 0.2
06/04:30pm 2.0 -1.1 0.2 88 0.7 S 6 11 3 6 - - 0.2
06/04:00pm 2.4 -0.9 0.3 86 0.8 SSE 7 11 4 6 - - 0.2
06/03:30pm 2.6 -1.5 0.0 83 1.0 SE 11 20 6 11 - - 0.2
06/03:00pm 3.1 0.1 1.0 86 0.8 E 6 9 3 5 - - 0.2
06/02:30pm 2.8 -0.8 0.7 86 0.8 ESE 9 17 5 9 - - 0.2
06/02:00pm 3.0 -0.1 1.2 88 0.7 ESE 7 13 4 7 - - 0.2
06/01:30pm 2.8 -0.3 1.6 92 0.5 SE 7 13 4 7 - - 0.2
06/01:00pm 2.8 -1.1 1.2 89 0.6 SE 11 19 6 10 - - 0.2
06/12:30pm 4.1 0.2 1.0 80 1.2 E 11 17 6 9 - - 0.2
06/12:00pm 3.2 -0.2 1.9 91 0.5 ENE 9 13 5 7 - - 0.2
06/11:30am 2.3 -1.3 0.7 89 0.6 E 9 15 5 8 - - 0.2
06/11:00am 2.8 -0.7 1.2 89 0.6 E 9 15 5 8 - - 0.0
06/10:30am 2.8 -0.2 1.9 94 0.4 E 7 11 4 6 - - 0.0
06/10:00am 2.8 -0.2 2.1 95 0.3 ENE 7 11 4 6 - - 0.0
06/09:30am 1.9 -1.1 1.8 99 0.0 ENE 7 9 4 5 - - 0.0
06/09:00am 0.5 -2.6 0.4 99 0.0 ENE 6 7 3 4 - - 0.4
06/08:30am 0.5 -2.2 0.4 99 0.0 ENE 4 7 2 4 - - 0.4
06/08:00am 0.8 -2.8 0.8 100 0.0 ESE 9 15 5 8 - - 0.4
06/07:30am 1.2 -1.7 1.2 100 0.0 ESE 6 11 3 6 - - 0.4
06/07:00am 1.3 -1.8 1.3 100 0.0 E 7 13 4 7 - - 0.4
06/06:30am 1.5 -1.6 1.5 100 0.0 SE 7 15 4 8 - - 0.4
06/06:00am 1.7 -1.2 1.7 100 0.0 ESE 6 9 3 5 - - 0.4
06/05:30am 1.8 -1.0 1.8 100 0.0 ESE 6 9 3 5 - - 0.4
06/05:00am 2.0 -0.4 2.0 100 0.0 ENE 4 7 2 4 - - 0.4
06/04:30am 2.1 -0.7 2.1 100 0.0 E 6 7 3 4 - - 0.2
06/04:00am 2.2 -0.6 2.2 100 0.0 SE 6 7 3 4 - - 0.2
06/03:30am 2.2 -0.8 2.2 100 0.0 ENE 7 9 4 5 - - 0.2
06/03:00am 2.3 -0.5 2.3 100 0.0 ENE 6 9 3 5 - - 0.0
06/02:30am 2.4 -0.3 2.4 100 0.0 NE 6 9 3 5 - - 0.0
06/02:00am 2.5 -0.2 2.5 100 0.0 NE 6 9 3 5 - - 0.0
06/01:30am 2.6 -0.1 2.6 100 0.0 NNE 6 9 3 5 - - 0.0
06/01:00am 2.6 -0.1 2.6 100 0.0 E 6 7 3 4 - - 0.0
06/12:30am 2.7 -0.2 2.7 100 0.0 ESE 7 13 4 7 - - 0.0
06/12:00am 2.8 -0.1 2.8 100 0.0 ENE 7 11 4 6 - - 0.0
 
Date/Time
EST
Temp
°C
App
Temp
°C
Dew
Point
Rel
Hum
%
Delta-T
°C
Wind Press
QNH
hPa
Press
MSL
hPa
Rain
since 9 am
mm
Dir
 
Spd
km/h
Gust
km/h
Spd
kts
Gust
kts
05/11:30pm 3.0 0.4 3.0 100 0.0 E 6 9 3 5 - - 0.0
05/11:00pm 3.0 0.7 3.0 100 0.0 SE 4 9 2 5 - - 0.0
05/10:30pm 3.1 0.5 3.1 100 0.0 E 6 9 3 5 - - 0.0
05/10:00pm 3.1 0.3 3.1 100 0.0 ENE 7 11 4 6 - - 0.0
05/09:30pm 3.4 2.0 3.4 100 0.0 CALM 0 6 0 3 - - 0.0
05/09:00pm 3.4 2.0 3.4 100 0.0 CALM 0 6 0 3 - - 0.0
05/08:30pm 3.4 1.2 3.4 100 0.0 SSW 4 7 2 4 - - 0.0
05/08:00pm 3.4 1.6 3.4 100 0.0 SW 2 6 1 3 - - 0.0
05/07:30pm 3.4 1.2 3.4 100 0.0 SW 4 6 2 3 - - 0.0
05/07:00pm 3.2 0.6 3.2 100 0.0 SW 6 7 3 4 - - 0.0
05/06:30pm 3.4 0.8 3.4 100 0.0 SSE 6 7 3 4 - - 0.0
05/06:00pm 2.7 -0.2 2.6 99 0.0 SW 7 9 4 5 - - 0.0
05/05:30pm 3.1 0.4 2.5 96 0.2 SSW 6 7 3 4 - - 0.0
05/05:00pm 3.8 1.1 2.5 91 0.5 SSW 6 9 3 5 - - 0.0
05/04:30pm 4.5 1.8 2.7 88 0.8 S 6 7 3 4 - - 0.0
05/04:00pm 5.2 2.4 2.9 85 1.0 S 7 11 4 6 - - 0.0
05/03:30pm 5.8 3.0 3.0 82 1.2 S 7 11 4 6 - - 0.0
05/03:00pm 6.8 3.9 2.7 75 1.8 W 7 13 4 7 - - 0.0
05/02:30pm 6.1 3.3 3.3 82 1.2 WSW 7 11 4 6 - - 0.0
05/02:00pm 5.8 2.6 3.1 83 1.2 WSW 9 17 5 9 - - 0.0
05/01:30pm 5.9 2.7 2.9 81 1.3 WSW 9 13 5 7 - - 0.0
05/01:00pm 6.2 3.4 3.0 80 1.4 SW 7 13 4 7 - - 0.0
05/12:30pm 6.7 3.7 4.0 83 1.2 W 9 19 5 10 - - 0.0
05/12:00pm 5.3 2.7 4.1 92 0.5 SW 7 11 4 6 - - 0.0
05/11:30am 5.1 2.6 4.8 98 0.1 WSW 7 11 4 6 - - 0.0
05/11:00am 4.9 2.4 4.8 99 0.0 WSW 7 9 4 5 - - 0.0
05/10:30am 4.9 2.6 4.9 100 0.0 WSW 6 9 3 5 - - 0.0
05/10:00am 4.8 3.6 4.8 100 0.0 CALM 0 0 0 0 - - 0.0
05/09:30am 4.4 2.8 4.4 100 0.0 W 2 7 1 4 - - 0.0
05/09:00am 4.2 2.5 4.2 100 0.0 SSW 2 6 1 3 - - 0.8
05/08:30am 4.2 1.8 4.2 100 0.0 SSW 6 11 3 6 - - 0.8
05/08:00am 4.3 1.3 4.3 100 0.0 WSW 9 15 5 8 - - 0.6
05/07:30am 4.2 1.2 4.2 100 0.0 W 9 15 5 8 - - 0.6
05/07:00am 4.2 0.4 4.1 99 0.0 W 13 19 7 10 - - 0.6
05/06:30am 4.0 1.9 3.7 98 0.1 NW 4 7 2 4 - - 0.4
05/06:00am 4.6 1.7 2.8 88 0.8 W 7 15 4 8 - - 0.2
05/05:30am 4.7 1.3 1.9 82 1.2 WNW 9 20 5 11 - - 0.2
05/05:00am 4.3 1.3 1.0 79 1.3 SW 6 11 3 6 - - 0.2
05/04:30am 4.7 1.5 0.7 75 1.6 W 7 19 4 10 - - 0.2
05/04:00am 4.7 0.7 0.8 76 1.6 W 11 19 6 10 - - 0.2
05/03:30am 5.2 1.3 1.3 76 1.6 W 11 24 6 13 - - 0.2
05/03:00am 5.3 1.4 0.9 73 1.8 WNW 11 20 6 11 - - 0.2
05/02:30am 5.3 0.2 0.7 72 1.8 WNW 17 30 9 16 - - 0.2
05/02:00am 5.2 0.5 1.0 74 1.7 WNW 15 35 8 19 - - 0.2

Other Formats:

Comma delimited format used in spreadsheet applications
http://www.bom.gov.au/fwo/IDT60801/IDT60801.95962.axf

JavaScript Object Notation format (JSON) in row-major order
http://www.bom.gov.au/fwo/IDT60801/IDT60801.95962.json